sensor_id;sensor_type;location;lat;lon;timestamp;P1;durP1;ratioP1;P2;durP2;ratioP2
80195;SDS011;69516;42.050;21.516;2023-08-30T00:02:10;15.57;;;10.50;;
80195;SDS011;69516;42.050;21.516;2023-08-30T00:04:36;16.45;;;11.15;;
80195;SDS011;69516;42.050;21.516;2023-08-30T00:07:02;18.88;;;10.48;;
80195;SDS011;69516;42.050;21.516;2023-08-30T00:09:28;15.23;;;9.75;;
80195;SDS011;69516;42.050;21.516;2023-08-30T00:11:55;16.60;;;9.93;;
80195;SDS011;69516;42.050;21.516;2023-08-30T00:14:21;14.88;;;10.18;;
80195;SDS011;69516;42.050;21.516;2023-08-30T00:16:47;16.42;;;9.73;;
80195;SDS011;69516;42.050;21.516;2023-08-30T00:19:13;16.65;;;10.02;;
80195;SDS011;69516;42.050;21.516;2023-08-30T00:21:39;17.10;;;10.45;;
80195;SDS011;69516;42.050;21.516;2023-08-30T00:24:05;15.85;;;9.60;;
80195;SDS011;69516;42.050;21.516;2023-08-30T00:26:31;18.83;;;10.50;;
80195;SDS011;69516;42.050;21.516;2023-08-30T00:28:57;15.57;;;10.63;;
80195;SDS011;69516;42.050;21.516;2023-08-30T00:31:23;15.93;;;10.68;;
80195;SDS011;69516;42.050;21.516;2023-08-30T00:33:50;16.85;;;10.25;;
80195;SDS011;69516;42.050;21.516;2023-08-30T00:36:16;15.80;;;10.50;;
80195;SDS011;69516;42.050;21.516;2023-08-30T00:38:43;15.88;;;10.73;;
80195;SDS011;69516;42.050;21.516;2023-08-30T00:41:09;15.10;;;10.23;;
80195;SDS011;69516;42.050;21.516;2023-08-30T00:43:35;15.60;;;9.35;;
80195;SDS011;69516;42.050;21.516;2023-08-30T00:46:02;17.55;;;10.10;;
80195;SDS011;69516;42.050;21.516;2023-08-30T00:48:28;16.92;;;10.23;;
80195;SDS011;69516;42.050;21.516;2023-08-30T00:50:54;14.73;;;9.98;;
80195;SDS011;69516;42.050;21.516;2023-08-30T00:53:20;18.38;;;9.98;;
80195;SDS011;69516;42.050;21.516;2023-08-30T00:55:46;15.40;;;9.82;;
80195;SDS011;69516;42.050;21.516;2023-08-30T00:58:13;18.40;;;10.38;;
80195;SDS011;69516;42.050;21.516;2023-08-30T01:00:39;14.75;;;9.75;;
80195;SDS011;69516;42.050;21.516;2023-08-30T01:03:06;14.60;;;10.13;;
80195;SDS011;69516;42.050;21.516;2023-08-30T01:05:33;15.70;;;10.45;;
80195;SDS011;69516;42.050;21.516;2023-08-30T01:07:59;17.73;;;9.70;;
80195;SDS011;69516;42.050;21.516;2023-08-30T01:10:27;18.80;;;10.63;;
80195;SDS011;69516;42.050;21.516;2023-08-30T01:12:58;13.55;;;9.25;;
80195;SDS011;69516;42.050;21.516;2023-08-30T01:15:27;15.88;;;10.32;;
80195;SDS011;69516;42.050;21.516;2023-08-30T01:17:54;15.40;;;9.55;;
80195;SDS011;69516;42.050;21.516;2023-08-30T01:20:21;15.65;;;9.52;;
80195;SDS011;69516;42.050;21.516;2023-08-30T01:28:09;12.55;;;7.25;;
80195;SDS011;69516;42.050;21.516;2023-08-30T01:30:36;11.80;;;7.32;;
80195;SDS011;69516;42.050;21.516;2023-08-30T01:33:03;11.95;;;6.63;;
80195;SDS011;69516;42.050;21.516;2023-08-30T01:35:31;11.02;;;7.60;;
80195;SDS011;69516;42.050;21.516;2023-08-30T01:38:01;10.25;;;7.53;;
80195;SDS011;69516;42.050;21.516;2023-08-30T01:40:28;12.60;;;7.38;;
80195;SDS011;69516;42.050;21.516;2023-08-30T01:42:56;12.13;;;7.55;;
80195;SDS011;69516;42.050;21.516;2023-08-30T01:45:23;12.65;;;7.47;;
80195;SDS011;69516;42.050;21.516;2023-08-30T01:47:50;14.38;;;7.43;;
80195;SDS011;69516;42.050;21.516;2023-08-30T01:50:17;13.35;;;6.95;;
80195;SDS011;69516;42.050;21.516;2023-08-30T01:52:45;15.75;;;7.45;;
80195;SDS011;69516;42.050;21.516;2023-08-30T01:55:11;12.90;;;7.43;;
80195;SDS011;69516;42.050;21.516;2023-08-30T01:57:39;12.45;;;7.75;;
80195;SDS011;69516;42.050;21.516;2023-08-30T02:00:05;14.13;;;8.15;;
80195;SDS011;69516;42.050;21.516;2023-08-30T02:02:33;12.30;;;7.88;;
80195;SDS011;69516;42.050;21.516;2023-08-30T02:05:00;14.70;;;8.18;;
80195;SDS011;69516;42.050;21.516;2023-08-30T02:07:33;11.40;;;7.63;;
80195;SDS011;69516;42.050;21.516;2023-08-30T02:10:02;14.48;;;8.77;;
80195;SDS011;69516;42.050;21.516;2023-08-30T02:12:35;14.43;;;8.52;;
80195;SDS011;69516;42.050;21.516;2023-08-30T02:15:02;17.63;;;8.63;;
80195;SDS011;69516;42.050;21.516;2023-08-30T02:17:29;13.70;;;8.52;;
80195;SDS011;69516;42.050;21.516;2023-08-30T02:19:56;13.95;;;9.20;;
80195;SDS011;69516;42.050;21.516;2023-08-30T02:22:22;15.43;;;9.63;;
80195;SDS011;69516;42.050;21.516;2023-08-30T02:24:48;15.93;;;9.40;;
80195;SDS011;69516;42.050;21.516;2023-08-30T02:27:14;14.25;;;9.15;;
80195;SDS011;69516;42.050;21.516;2023-08-30T02:29:40;15.73;;;9.23;;
80195;SDS011;69516;42.050;21.516;2023-08-30T02:32:06;13.32;;;8.65;;
80195;SDS011;69516;42.050;21.516;2023-08-30T02:34:33;16.50;;;9.65;;
80195;SDS011;69516;42.050;21.516;2023-08-30T02:37:01;14.73;;;8.30;;
80195;SDS011;69516;42.050;21.516;2023-08-30T02:39:27;14.35;;;8.32;;
80195;SDS011;69516;42.050;21.516;2023-08-30T02:41:53;14.00;;;8.40;;
80195;SDS011;69516;42.050;21.516;2023-08-30T02:44:19;15.85;;;8.30;;
80195;SDS011;69516;42.050;21.516;2023-08-30T02:46:45;16.15;;;8.50;;
80195;SDS011;69516;42.050;21.516;2023-08-30T02:49:11;19.52;;;10.35;;
80195;SDS011;69516;42.050;21.516;2023-08-30T02:51:37;17.73;;;9.45;;
80195;SDS011;69516;42.050;21.516;2023-08-30T02:54:03;15.45;;;9.63;;
80195;SDS011;69516;42.050;21.516;2023-08-30T02:56:31;16.25;;;9.90;;
80195;SDS011;69516;42.050;21.516;2023-08-30T02:58:58;17.73;;;10.60;;
80195;SDS011;69516;42.050;21.516;2023-08-30T03:01:24;16.13;;;10.35;;
80195;SDS011;69516;42.050;21.516;2023-08-30T03:03:50;17.65;;;9.95;;
80195;SDS011;69516;42.050;21.516;2023-08-30T03:06:16;16.08;;;8.85;;
80195;SDS011;69516;42.050;21.516;2023-08-30T03:08:42;15.25;;;9.30;;
80195;SDS011;69516;42.050;21.516;2023-08-30T03:11:12;17.45;;;9.25;;
80195;SDS011;69516;42.050;21.516;2023-08-30T03:13:38;15.82;;;9.00;;
80195;SDS011;69516;42.050;21.516;2023-08-30T03:16:13;14.40;;;9.05;;
80195;SDS011;69516;42.050;21.516;2023-08-30T03:18:40;17.50;;;9.75;;
80195;SDS011;69516;42.050;21.516;2023-08-30T03:21:07;15.60;;;9.10;;
80195;SDS011;69516;42.050;21.516;2023-08-30T03:23:33;16.20;;;8.73;;
80195;SDS011;69516;42.050;21.516;2023-08-30T03:26:07;13.30;;;8.13;;
80195;SDS011;69516;42.050;21.516;2023-08-30T03:28:33;13.02;;;8.07;;
80195;SDS011;69516;42.050;21.516;2023-08-30T03:30:59;14.35;;;8.57;;
80195;SDS011;69516;42.050;21.516;2023-08-30T03:33:25;13.15;;;7.95;;
80195;SDS011;69516;42.050;21.516;2023-08-30T03:35:51;13.40;;;8.48;;
80195;SDS011;69516;42.050;21.516;2023-08-30T03:38:17;13.27;;;7.95;;
80195;SDS011;69516;42.050;21.516;2023-08-30T03:40:44;13.15;;;8.13;;
80195;SDS011;69516;42.050;21.516;2023-08-30T03:43:10;15.60;;;8.55;;
80195;SDS011;69516;42.050;21.516;2023-08-30T03:45:36;20.58;;;9.38;;
80195;SDS011;69516;42.050;21.516;2023-08-30T03:48:03;19.08;;;8.93;;
80195;SDS011;69516;42.050;21.516;2023-08-30T03:50:29;17.75;;;9.07;;
80195;SDS011;69516;42.050;21.516;2023-08-30T03:52:55;15.52;;;8.75;;
80195;SDS011;69516;42.050;21.516;2023-08-30T03:55:21;13.75;;;8.75;;
80195;SDS011;69516;42.050;21.516;2023-08-30T03:57:48;16.15;;;9.00;;
80195;SDS011;69516;42.050;21.516;2023-08-30T04:00:14;14.93;;;9.10;;
80195;SDS011;69516;42.050;21.516;2023-08-30T04:02:40;16.95;;;9.10;;
80195;SDS011;69516;42.050;21.516;2023-08-30T04:05:06;14.75;;;9.10;;
80195;SDS011;69516;42.050;21.516;2023-08-30T04:07:35;14.68;;;8.38;;
80195;SDS011;69516;42.050;21.516;2023-08-30T04:10:01;17.05;;;8.65;;
80195;SDS011;69516;42.050;21.516;2023-08-30T04:12:31;15.23;;;9.27;;
80195;SDS011;69516;42.050;21.516;2023-08-30T04:14:57;19.67;;;14.88;;
80195;SDS011;69516;42.050;21.516;2023-08-30T04:17:23;15.77;;;10.43;;
80195;SDS011;69516;42.050;21.516;2023-08-30T04:19:52;17.05;;;10.05;;
80195;SDS011;69516;42.050;21.516;2023-08-30T04:22:18;19.95;;;10.52;;
80195;SDS011;69516;42.050;21.516;2023-08-30T04:24:45;18.55;;;10.25;;
80195;SDS011;69516;42.050;21.516;2023-08-30T04:27:11;15.48;;;9.40;;
80195;SDS011;69516;42.050;21.516;2023-08-30T04:29:37;16.08;;;9.27;;
80195;SDS011;69516;42.050;21.516;2023-08-30T04:32:04;17.55;;;10.02;;
80195;SDS011;69516;42.050;21.516;2023-08-30T04:34:30;16.50;;;9.63;;
80195;SDS011;69516;42.050;21.516;2023-08-30T04:36:56;18.17;;;9.63;;
80195;SDS011;69516;42.050;21.516;2023-08-30T04:39:22;16.90;;;9.63;;
80195;SDS011;69516;42.050;21.516;2023-08-30T04:41:49;16.20;;;9.00;;
80195;SDS011;69516;42.050;21.516;2023-08-30T04:44:15;18.63;;;10.20;;
80195;SDS011;69516;42.050;21.516;2023-08-30T04:49:50;15.60;;;9.55;;
80195;SDS011;69516;42.050;21.516;2023-08-30T04:52:16;17.38;;;10.02;;
80195;SDS011;69516;42.050;21.516;2023-08-30T04:54:42;16.42;;;9.52;;
80195;SDS011;69516;42.050;21.516;2023-08-30T04:57:10;19.83;;;10.38;;
80195;SDS011;69516;42.050;21.516;2023-08-30T04:59:39;16.55;;;9.68;;
80195;SDS011;69516;42.050;21.516;2023-08-30T05:02:06;15.70;;;9.80;;
80195;SDS011;69516;42.050;21.516;2023-08-30T05:04:32;16.42;;;9.65;;
80195;SDS011;69516;42.050;21.516;2023-08-30T05:06:58;16.17;;;9.73;;
80195;SDS011;69516;42.050;21.516;2023-08-30T05:09:24;18.33;;;9.93;;
80195;SDS011;69516;42.050;21.516;2023-08-30T05:11:51;15.93;;;9.32;;
80195;SDS011;69516;42.050;21.516;2023-08-30T05:14:17;20.10;;;9.80;;
80195;SDS011;69516;42.050;21.516;2023-08-30T05:16:43;20.35;;;10.50;;
80195;SDS011;69516;42.050;21.516;2023-08-30T05:19:09;17.60;;;10.68;;
80195;SDS011;69516;42.050;21.516;2023-08-30T05:21:35;19.05;;;10.18;;
80195;SDS011;69516;42.050;21.516;2023-08-30T05:24:01;13.93;;;9.20;;
80195;SDS011;69516;42.050;21.516;2023-08-30T05:26:27;17.23;;;9.30;;
80195;SDS011;69516;42.050;21.516;2023-08-30T05:28:53;15.30;;;9.57;;
80195;SDS011;69516;42.050;21.516;2023-08-30T05:31:20;14.98;;;8.98;;
80195;SDS011;69516;42.050;21.516;2023-08-30T05:33:46;13.82;;;8.80;;
80195;SDS011;69516;42.050;21.516;2023-08-30T05:36:12;14.13;;;9.32;;
80195;SDS011;69516;42.050;21.516;2023-08-30T05:38:38;16.58;;;8.80;;
80195;SDS011;69516;42.050;21.516;2023-08-30T05:41:04;20.30;;;10.40;;
80195;SDS011;69516;42.050;21.516;2023-08-30T05:43:30;15.05;;;9.00;;
80195;SDS011;69516;42.050;21.516;2023-08-30T05:45:57;15.23;;;9.27;;
80195;SDS011;69516;42.050;21.516;2023-08-30T05:48:27;14.27;;;8.65;;
80195;SDS011;69516;42.050;21.516;2023-08-30T05:50:53;12.05;;;7.93;;
80195;SDS011;69516;42.050;21.516;2023-08-30T05:53:20;15.20;;;7.50;;
80195;SDS011;69516;42.050;21.516;2023-08-30T05:55:46;12.18;;;8.15;;
80195;SDS011;69516;42.050;21.516;2023-08-30T05:58:12;14.23;;;8.48;;
80195;SDS011;69516;42.050;21.516;2023-08-30T06:03:06;16.20;;;8.05;;
80195;SDS011;69516;42.050;21.516;2023-08-30T06:05:33;13.77;;;7.63;;
80195;SDS011;69516;42.050;21.516;2023-08-30T06:11:02;11.40;;;7.30;;
80195;SDS011;69516;42.050;21.516;2023-08-30T06:13:28;15.68;;;10.68;;
80195;SDS011;69516;42.050;21.516;2023-08-30T06:15:54;15.25;;;9.70;;
80195;SDS011;69516;42.050;21.516;2023-08-30T06:18:20;15.60;;;9.10;;
80195;SDS011;69516;42.050;21.516;2023-08-30T06:20:47;14.88;;;8.60;;
80195;SDS011;69516;42.050;21.516;2023-08-30T06:23:13;14.55;;;9.45;;
80195;SDS011;69516;42.050;21.516;2023-08-30T06:25:40;14.40;;;9.70;;
80195;SDS011;69516;42.050;21.516;2023-08-30T06:28:06;11.63;;;8.40;;
80195;SDS011;69516;42.050;21.516;2023-08-30T06:30:32;12.68;;;8.18;;
80195;SDS011;69516;42.050;21.516;2023-08-30T06:33:00;13.00;;;8.98;;
80195;SDS011;69516;42.050;21.516;2023-08-30T06:35:26;14.27;;;9.10;;
80195;SDS011;69516;42.050;21.516;2023-08-30T06:37:52;15.32;;;8.95;;
80195;SDS011;69516;42.050;21.516;2023-08-30T06:40:18;13.13;;;8.45;;
80195;SDS011;69516;42.050;21.516;2023-08-30T06:42:45;13.45;;;9.00;;
80195;SDS011;69516;42.050;21.516;2023-08-30T06:45:11;14.73;;;8.80;;
80195;SDS011;69516;42.050;21.516;2023-08-30T06:47:37;13.85;;;9.02;;
80195;SDS011;69516;42.050;21.516;2023-08-30T06:50:03;16.42;;;9.75;;
80195;SDS011;69516;42.050;21.516;2023-08-30T06:52:30;13.50;;;10.45;;
80195;SDS011;69516;42.050;21.516;2023-08-30T06:54:56;15.73;;;10.05;;
80195;SDS011;69516;42.050;21.516;2023-08-30T06:57:22;14.18;;;9.50;;
80195;SDS011;69516;42.050;21.516;2023-08-30T06:59:48;14.48;;;10.48;;
80195;SDS011;69516;42.050;21.516;2023-08-30T07:02:14;15.30;;;9.52;;
80195;SDS011;69516;42.050;21.516;2023-08-30T07:04:40;13.00;;;9.40;;
80195;SDS011;69516;42.050;21.516;2023-08-30T07:07:07;15.45;;;10.05;;
80195;SDS011;69516;42.050;21.516;2023-08-30T07:09:33;16.70;;;10.57;;
80195;SDS011;69516;42.050;21.516;2023-08-30T07:11:59;18.33;;;11.05;;
80195;SDS011;69516;42.050;21.516;2023-08-30T07:14:26;18.10;;;9.95;;
80195;SDS011;69516;42.050;21.516;2023-08-30T07:16:52;20.63;;;10.68;;
80195;SDS011;69516;42.050;21.516;2023-08-30T07:19:18;19.55;;;10.82;;
80195;SDS011;69516;42.050;21.516;2023-08-30T07:21:44;18.75;;;10.57;;
80195;SDS011;69516;42.050;21.516;2023-08-30T07:24:10;22.80;;;12.48;;
80195;SDS011;69516;42.050;21.516;2023-08-30T07:26:37;18.23;;;10.50;;
80195;SDS011;69516;42.050;21.516;2023-08-30T07:29:03;19.83;;;10.70;;
80195;SDS011;69516;42.050;21.516;2023-08-30T07:31:33;16.13;;;10.02;;
80195;SDS011;69516;42.050;21.516;2023-08-30T07:33:59;17.63;;;9.85;;
80195;SDS011;69516;42.050;21.516;2023-08-30T07:36:29;17.20;;;10.10;;
80195;SDS011;69516;42.050;21.516;2023-08-30T07:38:57;15.98;;;10.30;;
80195;SDS011;69516;42.050;21.516;2023-08-30T07:41:23;17.17;;;9.60;;
80195;SDS011;69516;42.050;21.516;2023-08-30T07:43:49;14.70;;;10.30;;
80195;SDS011;69516;42.050;21.516;2023-08-30T07:46:16;17.83;;;9.73;;
80195;SDS011;69516;42.050;21.516;2023-08-30T07:48:42;18.20;;;10.20;;
80195;SDS011;69516;42.050;21.516;2023-08-30T07:51:08;20.20;;;10.93;;
80195;SDS011;69516;42.050;21.516;2023-08-30T07:53:34;17.23;;;10.40;;
80195;SDS011;69516;42.050;21.516;2023-08-30T07:56:00;15.98;;;9.43;;
80195;SDS011;69516;42.050;21.516;2023-08-30T07:58:26;16.23;;;9.07;;
80195;SDS011;69516;42.050;21.516;2023-08-30T08:00:52;15.48;;;8.93;;
80195;SDS011;69516;42.050;21.516;2023-08-30T08:03:22;15.88;;;9.40;;
80195;SDS011;69516;42.050;21.516;2023-08-30T08:08:52;20.38;;;9.95;;
80195;SDS011;69516;42.050;21.516;2023-08-30T08:11:18;13.90;;;9.30;;
80195;SDS011;69516;42.050;21.516;2023-08-30T08:13:44;15.10;;;9.00;;
80195;SDS011;69516;42.050;21.516;2023-08-30T08:16:11;13.73;;;8.60;;
80195;SDS011;69516;42.050;21.516;2023-08-30T08:18:37;15.88;;;9.23;;
80195;SDS011;69516;42.050;21.516;2023-08-30T08:21:03;14.00;;;7.00;;
80195;SDS011;69516;42.050;21.516;2023-08-30T08:23:29;11.52;;;6.45;;
80195;SDS011;69516;42.050;21.516;2023-08-30T08:25:58;13.23;;;6.53;;
80195;SDS011;69516;42.050;21.516;2023-08-30T08:28:24;10.70;;;5.82;;
80195;SDS011;69516;42.050;21.516;2023-08-30T08:30:50;9.45;;;4.13;;
80195;SDS011;69516;42.050;21.516;2023-08-30T08:33:17;11.18;;;4.25;;
80195;SDS011;69516;42.050;21.516;2023-08-30T08:35:44;10.80;;;4.75;;
80195;SDS011;69516;42.050;21.516;2023-08-30T08:38:10;10.40;;;4.88;;
80195;SDS011;69516;42.050;21.516;2023-08-30T08:40:37;10.75;;;3.80;;
80195;SDS011;69516;42.050;21.516;2023-08-30T08:43:06;8.98;;;3.65;;
80195;SDS011;69516;42.050;21.516;2023-08-30T08:45:36;8.23;;;3.63;;
80195;SDS011;69516;42.050;21.516;2023-08-30T08:48:03;8.93;;;3.88;;
80195;SDS011;69516;42.050;21.516;2023-08-30T08:50:30;8.98;;;3.97;;
80195;SDS011;69516;42.050;21.516;2023-08-30T08:52:56;8.93;;;4.35;;
80195;SDS011;69516;42.050;21.516;2023-08-30T08:55:23;9.57;;;4.78;;
80195;SDS011;69516;42.050;21.516;2023-08-30T08:57:49;12.40;;;4.80;;
80195;SDS011;69516;42.050;21.516;2023-08-30T09:00:15;7.45;;;4.03;;
80195;SDS011;69516;42.050;21.516;2023-08-30T09:02:42;10.23;;;4.57;;
80195;SDS011;69516;42.050;21.516;2023-08-30T09:05:08;7.20;;;4.15;;
80195;SDS011;69516;42.050;21.516;2023-08-30T09:07:34;9.30;;;4.03;;
80195;SDS011;69516;42.050;21.516;2023-08-30T09:10:01;8.55;;;3.45;;
80195;SDS011;69516;42.050;21.516;2023-08-30T09:12:31;9.57;;;4.15;;
80195;SDS011;69516;42.050;21.516;2023-08-30T09:14:58;8.05;;;3.75;;
80195;SDS011;69516;42.050;21.516;2023-08-30T09:17:34;18.90;;;7.25;;
80195;SDS011;69516;42.050;21.516;2023-08-30T09:20:11;8.07;;;3.67;;
80195;SDS011;69516;42.050;21.516;2023-08-30T09:22:40;11.52;;;3.63;;
80195;SDS011;69516;42.050;21.516;2023-08-30T09:25:11;9.32;;;3.67;;
80195;SDS011;69516;42.050;21.516;2023-08-30T09:27:37;8.77;;;3.20;;
80195;SDS011;69516;42.050;21.516;2023-08-30T09:30:07;8.90;;;4.10;;
80195;SDS011;69516;42.050;21.516;2023-08-30T09:32:38;9.57;;;3.90;;
80195;SDS011;69516;42.050;21.516;2023-08-30T09:35:06;7.25;;;3.08;;
80195;SDS011;69516;42.050;21.516;2023-08-30T09:37:32;46.60;;;8.35;;
80195;SDS011;69516;42.050;21.516;2023-08-30T09:39:58;9.02;;;3.05;;
80195;SDS011;69516;42.050;21.516;2023-08-30T09:42:24;16.95;;;4.25;;
80195;SDS011;69516;42.050;21.516;2023-08-30T09:44:50;7.47;;;2.92;;
80195;SDS011;69516;42.050;21.516;2023-08-30T09:47:17;14.13;;;4.43;;
80195;SDS011;69516;42.050;21.516;2023-08-30T09:49:43;8.73;;;3.60;;
80195;SDS011;69516;42.050;21.516;2023-08-30T09:52:10;9.73;;;3.80;;
80195;SDS011;69516;42.050;21.516;2023-08-30T09:54:38;8.60;;;3.55;;
80195;SDS011;69516;42.050;21.516;2023-08-30T09:57:06;8.32;;;3.40;;
80195;SDS011;69516;42.050;21.516;2023-08-30T09:59:33;6.55;;;2.60;;
80195;SDS011;69516;42.050;21.516;2023-08-30T10:01:59;9.00;;;2.90;;
80195;SDS011;69516;42.050;21.516;2023-08-30T10:04:25;8.70;;;3.15;;
80195;SDS011;69516;42.050;21.516;2023-08-30T10:06:52;8.05;;;3.03;;
80195;SDS011;69516;42.050;21.516;2023-08-30T10:09:19;7.90;;;2.65;;
80195;SDS011;69516;42.050;21.516;2023-08-30T10:11:46;8.23;;;2.45;;
80195;SDS011;69516;42.050;21.516;2023-08-30T10:14:12;7.90;;;2.10;;
80195;SDS011;69516;42.050;21.516;2023-08-30T10:16:45;6.63;;;2.20;;
80195;SDS011;69516;42.050;21.516;2023-08-30T10:19:25;7.13;;;2.90;;
80195;SDS011;69516;42.050;21.516;2023-08-30T10:22:01;9.55;;;2.80;;
80195;SDS011;69516;42.050;21.516;2023-08-30T10:24:40;6.18;;;2.40;;
80195;SDS011;69516;42.050;21.516;2023-08-30T10:27:08;7.22;;;2.63;;
80195;SDS011;69516;42.050;21.516;2023-08-30T10:29:35;6.80;;;2.88;;
80195;SDS011;69516;42.050;21.516;2023-08-30T10:32:03;7.30;;;2.80;;
80195;SDS011;69516;42.050;21.516;2023-08-30T10:34:33;7.68;;;3.13;;
80195;SDS011;69516;42.050;21.516;2023-08-30T10:36:59;23.83;;;13.45;;
80195;SDS011;69516;42.050;21.516;2023-08-30T10:39:35;8.57;;;3.50;;
80195;SDS011;69516;42.050;21.516;2023-08-30T10:42:12;6.20;;;2.35;;
80195;SDS011;69516;42.050;21.516;2023-08-30T10:44:58;6.82;;;2.70;;
80195;SDS011;69516;42.050;21.516;2023-08-30T10:47:25;9.98;;;2.75;;
80195;SDS011;69516;42.050;21.516;2023-08-30T10:49:55;9.48;;;3.13;;
80195;SDS011;69516;42.050;21.516;2023-08-30T10:52:21;6.55;;;2.50;;
80195;SDS011;69516;42.050;21.516;2023-08-30T10:54:47;7.10;;;2.53;;
80195;SDS011;69516;42.050;21.516;2023-08-30T10:57:17;8.20;;;2.95;;
80195;SDS011;69516;42.050;21.516;2023-08-30T11:02:29;7.65;;;3.28;;
80195;SDS011;69516;42.050;21.516;2023-08-30T11:04:56;9.30;;;3.05;;
80195;SDS011;69516;42.050;21.516;2023-08-30T11:07:24;6.93;;;2.67;;
80195;SDS011;69516;42.050;21.516;2023-08-30T11:09:51;7.80;;;2.83;;
80195;SDS011;69516;42.050;21.516;2023-08-30T11:12:18;7.97;;;2.78;;
80195;SDS011;69516;42.050;21.516;2023-08-30T11:14:47;7.15;;;2.65;;
80195;SDS011;69516;42.050;21.516;2023-08-30T11:17:13;7.05;;;2.40;;
80195;SDS011;69516;42.050;21.516;2023-08-30T11:19:42;7.25;;;2.58;;
80195;SDS011;69516;42.050;21.516;2023-08-30T11:22:08;8.23;;;2.85;;
80195;SDS011;69516;42.050;21.516;2023-08-30T11:24:34;6.63;;;2.58;;
80195;SDS011;69516;42.050;21.516;2023-08-30T11:27:00;7.68;;;2.80;;
80195;SDS011;69516;42.050;21.516;2023-08-30T11:29:27;8.02;;;2.65;;
80195;SDS011;69516;42.050;21.516;2023-08-30T11:31:53;7.30;;;2.70;;
80195;SDS011;69516;42.050;21.516;2023-08-30T11:34:19;9.23;;;2.85;;
80195;SDS011;69516;42.050;21.516;2023-08-30T11:36:47;7.53;;;2.60;;
80195;SDS011;69516;42.050;21.516;2023-08-30T11:39:13;8.40;;;2.60;;
80195;SDS011;69516;42.050;21.516;2023-08-30T11:41:39;10.18;;;2.33;;
80195;SDS011;69516;42.050;21.516;2023-08-30T11:44:06;8.45;;;2.85;;
80195;SDS011;69516;42.050;21.516;2023-08-30T11:46:32;6.18;;;2.33;;
80195;SDS011;69516;42.050;21.516;2023-08-30T11:48:58;5.68;;;2.08;;
80195;SDS011;69516;42.050;21.516;2023-08-30T11:51:25;6.40;;;2.40;;
80195;SDS011;69516;42.050;21.516;2023-08-30T11:53:51;6.53;;;2.20;;
80195;SDS011;69516;42.050;21.516;2023-08-30T11:56:19;8.45;;;2.47;;
80195;SDS011;69516;42.050;21.516;2023-08-30T11:58:45;5.88;;;2.25;;
80195;SDS011;69516;42.050;21.516;2023-08-30T12:01:12;6.68;;;2.40;;
80195;SDS011;69516;42.050;21.516;2023-08-30T12:03:38;6.40;;;2.67;;
80195;SDS011;69516;42.050;21.516;2023-08-30T12:06:09;6.00;;;2.47;;
80195;SDS011;69516;42.050;21.516;2023-08-30T12:08:36;6.15;;;2.25;;
80195;SDS011;69516;42.050;21.516;2023-08-30T12:11:02;5.32;;;2.25;;
80195;SDS011;69516;42.050;21.516;2023-08-30T12:13:29;5.70;;;2.20;;
80195;SDS011;69516;42.050;21.516;2023-08-30T12:15:56;7.93;;;2.30;;
80195;SDS011;69516;42.050;21.516;2023-08-30T12:18:31;7.43;;;2.33;;
80195;SDS011;69516;42.050;21.516;2023-08-30T12:21:02;7.45;;;2.42;;
80195;SDS011;69516;42.050;21.516;2023-08-30T12:23:29;5.68;;;2.30;;
80195;SDS011;69516;42.050;21.516;2023-08-30T12:26:08;7.05;;;2.28;;
80195;SDS011;69516;42.050;21.516;2023-08-30T12:28:38;5.82;;;2.28;;
80195;SDS011;69516;42.050;21.516;2023-08-30T12:31:04;7.53;;;2.55;;
80195;SDS011;69516;42.050;21.516;2023-08-30T12:33:30;6.80;;;2.40;;
80195;SDS011;69516;42.050;21.516;2023-08-30T12:35:57;5.03;;;2.05;;
80195;SDS011;69516;42.050;21.516;2023-08-30T12:38:24;8.80;;;2.60;;
80195;SDS011;69516;42.050;21.516;2023-08-30T12:40:51;5.13;;;1.92;;
80195;SDS011;69516;42.050;21.516;2023-08-30T12:43:18;6.20;;;2.08;;
80195;SDS011;69516;42.050;21.516;2023-08-30T12:45:45;6.18;;;2.20;;
80195;SDS011;69516;42.050;21.516;2023-08-30T12:48:12;6.18;;;1.80;;
80195;SDS011;69516;42.050;21.516;2023-08-30T12:50:43;4.85;;;1.90;;
80195;SDS011;69516;42.050;21.516;2023-08-30T12:53:09;5.72;;;1.88;;
80195;SDS011;69516;42.050;21.516;2023-08-30T12:55:35;4.80;;;1.73;;
80195;SDS011;69516;42.050;21.516;2023-08-30T12:58:08;5.78;;;1.92;;
80195;SDS011;69516;42.050;21.516;2023-08-30T13:00:34;5.18;;;1.85;;
80195;SDS011;69516;42.050;21.516;2023-08-30T13:03:01;6.97;;;1.85;;
80195;SDS011;69516;42.050;21.516;2023-08-30T13:05:30;4.80;;;1.65;;
80195;SDS011;69516;42.050;21.516;2023-08-30T13:07:57;6.43;;;1.80;;
80195;SDS011;69516;42.050;21.516;2023-08-30T13:10:23;4.85;;;1.50;;
80195;SDS011;69516;42.050;21.516;2023-08-30T13:12:50;5.80;;;1.80;;
80195;SDS011;69516;42.050;21.516;2023-08-30T13:15:16;5.32;;;1.90;;
80195;SDS011;69516;42.050;21.516;2023-08-30T13:17:42;6.80;;;1.73;;
80195;SDS011;69516;42.050;21.516;2023-08-30T13:20:09;5.05;;;1.50;;
80195;SDS011;69516;42.050;21.516;2023-08-30T13:22:35;4.75;;;1.60;;
80195;SDS011;69516;42.050;21.516;2023-08-30T13:25:02;3.83;;;1.52;;
80195;SDS011;69516;42.050;21.516;2023-08-30T13:27:32;6.78;;;1.75;;
80195;SDS011;69516;42.050;21.516;2023-08-30T13:29:58;6.40;;;1.60;;
80195;SDS011;69516;42.050;21.516;2023-08-30T13:32:25;6.07;;;1.95;;
80195;SDS011;69516;42.050;21.516;2023-08-30T13:34:52;4.57;;;1.52;;
80195;SDS011;69516;42.050;21.516;2023-08-30T13:37:18;6.30;;;1.67;;
80195;SDS011;69516;42.050;21.516;2023-08-30T13:39:45;7.05;;;1.73;;
80195;SDS011;69516;42.050;21.516;2023-08-30T13:42:11;6.55;;;1.77;;
80195;SDS011;69516;42.050;21.516;2023-08-30T13:44:37;4.05;;;1.50;;
80195;SDS011;69516;42.050;21.516;2023-08-30T13:47:04;5.10;;;1.70;;
80195;SDS011;69516;42.050;21.516;2023-08-30T13:49:31;5.15;;;1.55;;
80195;SDS011;69516;42.050;21.516;2023-08-30T13:51:57;4.65;;;1.40;;
80195;SDS011;69516;42.050;21.516;2023-08-30T13:54:23;5.25;;;1.75;;
80195;SDS011;69516;42.050;21.516;2023-08-30T13:56:50;6.72;;;2.03;;
80195;SDS011;69516;42.050;21.516;2023-08-30T13:59:16;4.75;;;1.60;;
80195;SDS011;69516;42.050;21.516;2023-08-30T14:01:42;6.38;;;1.75;;
80195;SDS011;69516;42.050;21.516;2023-08-30T14:04:09;5.30;;;1.80;;
80195;SDS011;69516;42.050;21.516;2023-08-30T14:06:35;4.72;;;1.90;;
80195;SDS011;69516;42.050;21.516;2023-08-30T14:09:01;4.90;;;1.63;;
80195;SDS011;69516;42.050;21.516;2023-08-30T14:11:30;5.32;;;1.80;;
80195;SDS011;69516;42.050;21.516;2023-08-30T14:13:56;5.15;;;1.60;;
80195;SDS011;69516;42.050;21.516;2023-08-30T14:16:22;6.95;;;2.00;;
80195;SDS011;69516;42.050;21.516;2023-08-30T14:18:49;6.18;;;2.00;;
80195;SDS011;69516;42.050;21.516;2023-08-30T14:21:15;5.38;;;1.80;;
80195;SDS011;69516;42.050;21.516;2023-08-30T14:23:41;5.05;;;1.70;;
80195;SDS011;69516;42.050;21.516;2023-08-30T14:26:07;5.72;;;2.00;;
80195;SDS011;69516;42.050;21.516;2023-08-30T14:28:35;6.63;;;1.92;;
80195;SDS011;69516;42.050;21.516;2023-08-30T14:31:01;7.00;;;1.60;;
80195;SDS011;69516;42.050;21.516;2023-08-30T14:33:29;6.63;;;1.70;;
80195;SDS011;69516;42.050;21.516;2023-08-30T14:35:56;10.20;;;2.28;;
80195;SDS011;69516;42.050;21.516;2023-08-30T14:38:22;5.57;;;1.65;;
80195;SDS011;69516;42.050;21.516;2023-08-30T14:41:00;5.43;;;1.70;;
80195;SDS011;69516;42.050;21.516;2023-08-30T14:43:30;5.00;;;1.58;;